sensor_id;sensor_type;location;lat;lon;timestamp;P1;durP1;ratioP1;P2;durP2;ratioP2
11911;SDS011;6016;41.928;25.556;2023-08-08T00:01:04;2.97;;;1.73;;
11911;SDS011;6016;41.928;25.556;2023-08-08T00:03:31;3.50;;;1.58;;
11911;SDS011;6016;41.928;25.556;2023-08-08T00:05:58;3.55;;;1.50;;
11911;SDS011;6016;41.928;25.556;2023-08-08T00:08:25;1.70;;;1.40;;
11911;SDS011;6016;41.928;25.556;2023-08-08T00:10:51;1.70;;;1.40;;
11911;SDS011;6016;41.928;25.556;2023-08-08T00:13:18;2.15;;;1.40;;
11911;SDS011;6016;41.928;25.556;2023-08-08T00:15:47;1.50;;;1.20;;
11911;SDS011;6016;41.928;25.556;2023-08-08T00:18:13;2.30;;;1.42;;
11911;SDS011;6016;41.928;25.556;2023-08-08T00:20:40;1.55;;;1.20;;
11911;SDS011;6016;41.928;25.556;2023-08-08T00:23:07;1.30;;;1.20;;
11911;SDS011;6016;41.928;25.556;2023-08-08T00:25:35;1.45;;;1.10;;
11911;SDS011;6016;41.928;25.556;2023-08-08T00:28:02;1.33;;;1.23;;
11911;SDS011;6016;41.928;25.556;2023-08-08T00:30:29;1.52;;;1.20;;
11911;SDS011;6016;41.928;25.556;2023-08-08T00:32:57;2.45;;;1.08;;
11911;SDS011;6016;41.928;25.556;2023-08-08T00:35:24;2.45;;;1.23;;
11911;SDS011;6016;41.928;25.556;2023-08-08T00:37:51;1.17;;;1.05;;
11911;SDS011;6016;41.928;25.556;2023-08-08T00:40:18;1.10;;;1.00;;
11911;SDS011;6016;41.928;25.556;2023-08-08T00:42:44;1.60;;;0.90;;
11911;SDS011;6016;41.928;25.556;2023-08-08T00:45:11;0.90;;;0.90;;
11911;SDS011;6016;41.928;25.556;2023-08-08T00:47:38;2.35;;;1.00;;
11911;SDS011;6016;41.928;25.556;2023-08-08T00:50:06;1.27;;;1.13;;
11911;SDS011;6016;41.928;25.556;2023-08-08T00:52:33;0.90;;;0.90;;
11911;SDS011;6016;41.928;25.556;2023-08-08T00:55:01;1.40;;;0.80;;
11911;SDS011;6016;41.928;25.556;2023-08-08T00:57:29;2.13;;;1.05;;
11911;SDS011;6016;41.928;25.556;2023-08-08T00:59:56;0.80;;;0.80;;
11911;SDS011;6016;41.928;25.556;2023-08-08T01:02:22;1.67;;;1.00;;
11911;SDS011;6016;41.928;25.556;2023-08-08T01:04:49;1.73;;;0.80;;
11911;SDS011;6016;41.928;25.556;2023-08-08T01:07:20;1.00;;;0.90;;
11911;SDS011;6016;41.928;25.556;2023-08-08T01:09:57;0.90;;;0.88;;
11911;SDS011;6016;41.928;25.556;2023-08-08T01:12:29;1.20;;;0.82;;
11911;SDS011;6016;41.928;25.556;2023-08-08T01:14:57;0.80;;;0.80;;
11911;SDS011;6016;41.928;25.556;2023-08-08T01:17:24;1.10;;;0.80;;
11911;SDS011;6016;41.928;25.556;2023-08-08T01:19:52;1.05;;;0.82;;
11911;SDS011;6016;41.928;25.556;2023-08-08T01:22:22;1.73;;;0.85;;
11911;SDS011;6016;41.928;25.556;2023-08-08T01:24:55;1.13;;;0.90;;
11911;SDS011;6016;41.928;25.556;2023-08-08T01:27:22;0.80;;;0.80;;
11911;SDS011;6016;41.928;25.556;2023-08-08T01:29:49;0.65;;;0.65;;
11911;SDS011;6016;41.928;25.556;2023-08-08T01:32:16;0.80;;;0.80;;
11911;SDS011;6016;41.928;25.556;2023-08-08T01:34:43;2.03;;;1.00;;
11911;SDS011;6016;41.928;25.556;2023-08-08T01:37:11;1.35;;;0.90;;
11911;SDS011;6016;41.928;25.556;2023-08-08T01:39:41;1.73;;;0.90;;
11911;SDS011;6016;41.928;25.556;2023-08-08T01:42:11;1.02;;;0.80;;
11911;SDS011;6016;41.928;25.556;2023-08-08T01:44:39;1.20;;;0.80;;
11911;SDS011;6016;41.928;25.556;2023-08-08T01:47:07;0.90;;;0.70;;
11911;SDS011;6016;41.928;25.556;2023-08-08T01:49:34;0.95;;;0.77;;
11911;SDS011;6016;41.928;25.556;2023-08-08T01:52:01;1.00;;;0.90;;
11911;SDS011;6016;41.928;25.556;2023-08-08T01:54:28;1.10;;;1.00;;
11911;SDS011;6016;41.928;25.556;2023-08-08T01:56:55;1.67;;;1.05;;
11911;SDS011;6016;41.928;25.556;2023-08-08T01:59:23;1.40;;;0.98;;
11911;SDS011;6016;41.928;25.556;2023-08-08T02:01:50;1.17;;;1.00;;
11911;SDS011;6016;41.928;25.556;2023-08-08T02:04:17;1.23;;;0.90;;
11911;SDS011;6016;41.928;25.556;2023-08-08T02:06:44;2.60;;;0.95;;
11911;SDS011;6016;41.928;25.556;2023-08-08T02:09:10;0.82;;;0.80;;
11911;SDS011;6016;41.928;25.556;2023-08-08T02:11:39;1.35;;;0.80;;
11911;SDS011;6016;41.928;25.556;2023-08-08T02:14:06;1.45;;;0.90;;
11911;SDS011;6016;41.928;25.556;2023-08-08T02:16:34;2.10;;;0.90;;
11911;SDS011;6016;41.928;25.556;2023-08-08T02:19:01;1.25;;;1.10;;
11911;SDS011;6016;41.928;25.556;2023-08-08T02:21:28;1.70;;;1.08;;
11911;SDS011;6016;41.928;25.556;2023-08-08T02:23:55;1.73;;;1.20;;
11911;SDS011;6016;41.928;25.556;2023-08-08T02:26:21;1.75;;;1.25;;
11911;SDS011;6016;41.928;25.556;2023-08-08T02:28:48;1.27;;;1.17;;
11911;SDS011;6016;41.928;25.556;2023-08-08T02:31:15;2.95;;;1.70;;
11911;SDS011;6016;41.928;25.556;2023-08-08T02:33:47;1.95;;;1.10;;
11911;SDS011;6016;41.928;25.556;2023-08-08T02:36:14;1.73;;;0.95;;
11911;SDS011;6016;41.928;25.556;2023-08-08T02:38:41;2.83;;;1.30;;
11911;SDS011;6016;41.928;25.556;2023-08-08T02:41:08;2.00;;;1.30;;
11911;SDS011;6016;41.928;25.556;2023-08-08T02:43:35;1.38;;;1.27;;
11911;SDS011;6016;41.928;25.556;2023-08-08T02:46:01;2.47;;;1.27;;
11911;SDS011;6016;41.928;25.556;2023-08-08T02:48:28;3.65;;;1.30;;
11911;SDS011;6016;41.928;25.556;2023-08-08T02:50:57;1.73;;;1.23;;
11911;SDS011;6016;41.928;25.556;2023-08-08T02:53:24;2.65;;;1.40;;
11911;SDS011;6016;41.928;25.556;2023-08-08T02:55:51;2.00;;;1.52;;
11911;SDS011;6016;41.928;25.556;2023-08-08T02:58:18;2.45;;;1.52;;
11911;SDS011;6016;41.928;25.556;2023-08-08T03:00:45;2.63;;;1.50;;
11911;SDS011;6016;41.928;25.556;2023-08-08T03:03:12;2.53;;;1.60;;
11911;SDS011;6016;41.928;25.556;2023-08-08T03:05:39;1.73;;;1.60;;
11911;SDS011;6016;41.928;25.556;2023-08-08T03:08:07;3.28;;;1.70;;
11911;SDS011;6016;41.928;25.556;2023-08-08T03:10:34;2.60;;;1.80;;
11911;SDS011;6016;41.928;25.556;2023-08-08T03:13:01;2.00;;;1.50;;
11911;SDS011;6016;41.928;25.556;2023-08-08T03:15:28;1.98;;;1.58;;
11911;SDS011;6016;41.928;25.556;2023-08-08T03:17:55;2.17;;;1.60;;
11911;SDS011;6016;41.928;25.556;2023-08-08T03:20:21;2.55;;;1.60;;
11911;SDS011;6016;41.928;25.556;2023-08-08T03:22:48;2.08;;;1.40;;
11911;SDS011;6016;41.928;25.556;2023-08-08T03:25:16;2.63;;;1.58;;
11911;SDS011;6016;41.928;25.556;2023-08-08T03:27:43;2.50;;;1.20;;
11911;SDS011;6016;41.928;25.556;2023-08-08T03:30:11;5.72;;;1.40;;
11911;SDS011;6016;41.928;25.556;2023-08-08T03:32:38;1.65;;;1.20;;
11911;SDS011;6016;41.928;25.556;2023-08-08T03:35:05;2.40;;;1.30;;
11911;SDS011;6016;41.928;25.556;2023-08-08T03:37:33;2.60;;;1.20;;
11911;SDS011;6016;41.928;25.556;2023-08-08T03:40:00;2.70;;;1.40;;
11911;SDS011;6016;41.928;25.556;2023-08-08T03:42:28;1.45;;;1.10;;
11911;SDS011;6016;41.928;25.556;2023-08-08T03:44:55;9.68;;;1.20;;
11911;SDS011;6016;41.928;25.556;2023-08-08T03:47:22;0.95;;;0.88;;
11911;SDS011;6016;41.928;25.556;2023-08-08T03:49:49;1.38;;;1.00;;
11911;SDS011;6016;41.928;25.556;2023-08-08T03:52:16;1.20;;;1.00;;
11911;SDS011;6016;41.928;25.556;2023-08-08T03:54:42;2.28;;;1.05;;
11911;SDS011;6016;41.928;25.556;2023-08-08T03:57:09;1.13;;;0.90;;
11911;SDS011;6016;41.928;25.556;2023-08-08T03:59:38;1.85;;;0.90;;
11911;SDS011;6016;41.928;25.556;2023-08-08T04:02:05;2.35;;;0.88;;
11911;SDS011;6016;41.928;25.556;2023-08-08T04:04:32;4.15;;;0.88;;
11911;SDS011;6016;41.928;25.556;2023-08-08T04:06:59;0.80;;;0.80;;
11911;SDS011;6016;41.928;25.556;2023-08-08T04:09:25;1.42;;;0.90;;
11911;SDS011;6016;41.928;25.556;2023-08-08T04:11:52;2.75;;;1.15;;
11911;SDS011;6016;41.928;25.556;2023-08-08T04:14:19;1.10;;;1.00;;
11911;SDS011;6016;41.928;25.556;2023-08-08T04:16:47;1.75;;;1.27;;
11911;SDS011;6016;41.928;25.556;2023-08-08T04:19:14;1.90;;;1.10;;
11911;SDS011;6016;41.928;25.556;2023-08-08T04:21:41;2.00;;;0.95;;
11911;SDS011;6016;41.928;25.556;2023-08-08T04:24:08;4.43;;;1.00;;
11911;SDS011;6016;41.928;25.556;2023-08-08T04:26:34;2.45;;;1.50;;
11911;SDS011;6016;41.928;25.556;2023-08-08T04:29:01;3.53;;;2.08;;
11911;SDS011;6016;41.928;25.556;2023-08-08T04:31:28;4.63;;;1.17;;
11911;SDS011;6016;41.928;25.556;2023-08-08T04:33:56;3.95;;;1.05;;
11911;SDS011;6016;41.928;25.556;2023-08-08T04:36:26;1.85;;;1.05;;
11911;SDS011;6016;41.928;25.556;2023-08-08T04:38:53;2.33;;;1.00;;
11911;SDS011;6016;41.928;25.556;2023-08-08T04:41:21;1.98;;;1.02;;
11911;SDS011;6016;41.928;25.556;2023-08-08T04:43:47;1.77;;;1.13;;
11911;SDS011;6016;41.928;25.556;2023-08-08T04:46:14;1.08;;;0.85;;
11911;SDS011;6016;41.928;25.556;2023-08-08T04:48:41;1.27;;;0.80;;
11911;SDS011;6016;41.928;25.556;2023-08-08T04:51:09;1.33;;;1.00;;
11911;SDS011;6016;41.928;25.556;2023-08-08T04:53:36;1.75;;;1.20;;
11911;SDS011;6016;41.928;25.556;2023-08-08T04:56:03;1.80;;;1.10;;
11911;SDS011;6016;41.928;25.556;2023-08-08T04:58:30;2.42;;;1.00;;
11911;SDS011;6016;41.928;25.556;2023-08-08T05:00:56;3.63;;;1.10;;
11911;SDS011;6016;41.928;25.556;2023-08-08T05:03:23;2.25;;;1.08;;
11911;SDS011;6016;41.928;25.556;2023-08-08T05:05:50;2.10;;;1.10;;
11911;SDS011;6016;41.928;25.556;2023-08-08T05:08:18;2.15;;;1.08;;
11911;SDS011;6016;41.928;25.556;2023-08-08T05:10:45;1.45;;;1.10;;
11911;SDS011;6016;41.928;25.556;2023-08-08T05:13:12;2.38;;;1.00;;
11911;SDS011;6016;41.928;25.556;2023-08-08T05:15:39;3.20;;;1.33;;
11911;SDS011;6016;41.928;25.556;2023-08-08T05:18:06;2.97;;;1.15;;
11911;SDS011;6016;41.928;25.556;2023-08-08T05:20:32;6.00;;;1.20;;
11911;SDS011;6016;41.928;25.556;2023-08-08T05:22:59;1.83;;;1.02;;
11911;SDS011;6016;41.928;25.556;2023-08-08T05:25:27;2.85;;;1.10;;
11911;SDS011;6016;41.928;25.556;2023-08-08T05:27:54;2.95;;;1.05;;
11911;SDS011;6016;41.928;25.556;2023-08-08T05:30:21;1.85;;;1.10;;
11911;SDS011;6016;41.928;25.556;2023-08-08T05:32:48;2.58;;;1.17;;
11911;SDS011;6016;41.928;25.556;2023-08-08T05:35:15;2.70;;;0.93;;
11911;SDS011;6016;41.928;25.556;2023-08-08T05:37:42;2.00;;;0.93;;
11911;SDS011;6016;41.928;25.556;2023-08-08T05:40:09;1.52;;;0.90;;
11911;SDS011;6016;41.928;25.556;2023-08-08T05:42:38;2.80;;;1.00;;
11911;SDS011;6016;41.928;25.556;2023-08-08T05:45:05;3.35;;;0.95;;
11911;SDS011;6016;41.928;25.556;2023-08-08T05:47:33;2.58;;;0.90;;
11911;SDS011;6016;41.928;25.556;2023-08-08T05:50:00;1.27;;;0.90;;
11911;SDS011;6016;41.928;25.556;2023-08-08T05:52:27;2.65;;;0.90;;
11911;SDS011;6016;41.928;25.556;2023-08-08T05:54:54;4.82;;;1.10;;
11911;SDS011;6016;41.928;25.556;2023-08-08T05:57:20;1.83;;;0.95;;
11911;SDS011;6016;41.928;25.556;2023-08-08T05:59:49;1.30;;;0.90;;
11911;SDS011;6016;41.928;25.556;2023-08-08T06:02:15;2.15;;;0.90;;
11911;SDS011;6016;41.928;25.556;2023-08-08T06:04:42;3.60;;;0.90;;
11911;SDS011;6016;41.928;25.556;2023-08-08T06:07:10;4.28;;;1.48;;
11911;SDS011;6016;41.928;25.556;2023-08-08T06:09:37;13.88;;;3.45;;
11911;SDS011;6016;41.928;25.556;2023-08-08T06:12:04;2.35;;;1.70;;
11911;SDS011;6016;41.928;25.556;2023-08-08T06:14:31;4.63;;;1.40;;
11911;SDS011;6016;41.928;25.556;2023-08-08T06:16:59;5.28;;;1.55;;
11911;SDS011;6016;41.928;25.556;2023-08-08T06:19:26;8.18;;;2.38;;
11911;SDS011;6016;41.928;25.556;2023-08-08T06:21:53;5.82;;;1.65;;
11911;SDS011;6016;41.928;25.556;2023-08-08T06:24:20;3.83;;;1.52;;
11911;SDS011;6016;41.928;25.556;2023-08-08T06:26:46;3.70;;;1.27;;
11911;SDS011;6016;41.928;25.556;2023-08-08T06:29:13;2.03;;;1.10;;
11911;SDS011;6016;41.928;25.556;2023-08-08T06:31:40;2.78;;;1.00;;
11911;SDS011;6016;41.928;25.556;2023-08-08T06:34:09;3.72;;;1.17;;
11911;SDS011;6016;41.928;25.556;2023-08-08T06:36:36;10.25;;;1.45;;
11911;SDS011;6016;41.928;25.556;2023-08-08T06:39:03;8.35;;;1.40;;
11911;SDS011;6016;41.928;25.556;2023-08-08T06:41:31;2.85;;;1.35;;
11911;SDS011;6016;41.928;25.556;2023-08-08T06:43:57;2.92;;;1.30;;
11911;SDS011;6016;41.928;25.556;2023-08-08T06:46:24;2.47;;;1.40;;
11911;SDS011;6016;41.928;25.556;2023-08-08T06:48:51;1.30;;;1.10;;
11911;SDS011;6016;41.928;25.556;2023-08-08T06:51:23;2.10;;;1.23;;
11911;SDS011;6016;41.928;25.556;2023-08-08T06:53:50;2.58;;;1.35;;
11911;SDS011;6016;41.928;25.556;2023-08-08T06:56:17;2.80;;;1.50;;
11911;SDS011;6016;41.928;25.556;2023-08-08T06:58:44;2.42;;;1.30;;
11911;SDS011;6016;41.928;25.556;2023-08-08T07:01:10;3.45;;;1.20;;
11911;SDS011;6016;41.928;25.556;2023-08-08T07:03:38;2.90;;;1.27;;
11911;SDS011;6016;41.928;25.556;2023-08-08T07:06:05;3.60;;;1.33;;
11911;SDS011;6016;41.928;25.556;2023-08-08T07:08:33;2.55;;;1.55;;
11911;SDS011;6016;41.928;25.556;2023-08-08T07:11:00;2.45;;;1.50;;
11911;SDS011;6016;41.928;25.556;2023-08-08T07:13:27;2.10;;;1.30;;
11911;SDS011;6016;41.928;25.556;2023-08-08T07:15:53;1.98;;;1.38;;
11911;SDS011;6016;41.928;25.556;2023-08-08T07:18:20;1.60;;;1.45;;
11911;SDS011;6016;41.928;25.556;2023-08-08T07:20:47;2.38;;;1.30;;
11911;SDS011;6016;41.928;25.556;2023-08-08T07:23:14;2.72;;;1.40;;
11911;SDS011;6016;41.928;25.556;2023-08-08T07:25:43;4.25;;;1.45;;
11911;SDS011;6016;41.928;25.556;2023-08-08T07:28:10;2.17;;;1.35;;
11911;SDS011;6016;41.928;25.556;2023-08-08T07:30:36;1.20;;;1.10;;
11911;SDS011;6016;41.928;25.556;2023-08-08T07:33:03;4.65;;;1.48;;
11911;SDS011;6016;41.928;25.556;2023-08-08T07:35:30;3.17;;;1.55;;
11911;SDS011;6016;41.928;25.556;2023-08-08T07:37:59;3.00;;;1.77;;
11911;SDS011;6016;41.928;25.556;2023-08-08T07:40:26;4.18;;;1.45;;
11911;SDS011;6016;41.928;25.556;2023-08-08T07:42:54;4.22;;;1.73;;
11911;SDS011;6016;41.928;25.556;2023-08-08T07:45:21;4.60;;;2.28;;
11911;SDS011;6016;41.928;25.556;2023-08-08T07:47:48;6.18;;;4.47;;
11911;SDS011;6016;41.928;25.556;2023-08-08T07:50:15;24.33;;;15.38;;
11911;SDS011;6016;41.928;25.556;2023-08-08T07:52:41;46.65;;;25.67;;
11911;SDS011;6016;41.928;25.556;2023-08-08T07:55:08;6.63;;;3.63;;
11911;SDS011;6016;41.928;25.556;2023-08-08T07:57:35;4.88;;;3.08;;
11911;SDS011;6016;41.928;25.556;2023-08-08T08:00:04;5.70;;;2.50;;
11911;SDS011;6016;41.928;25.556;2023-08-08T08:02:36;2.30;;;2.00;;
11911;SDS011;6016;41.928;25.556;2023-08-08T08:05:03;3.85;;;1.92;;
11911;SDS011;6016;41.928;25.556;2023-08-08T08:07:33;4.78;;;1.83;;
11911;SDS011;6016;41.928;25.556;2023-08-08T08:10:00;5.85;;;2.20;;
11911;SDS011;6016;41.928;25.556;2023-08-08T08:12:26;2.97;;;1.88;;
11911;SDS011;6016;41.928;25.556;2023-08-08T08:14:53;3.10;;;1.70;;
11911;SDS011;6016;41.928;25.556;2023-08-08T08:17:21;2.80;;;1.70;;
11911;SDS011;6016;41.928;25.556;2023-08-08T08:19:49;2.67;;;1.70;;
11911;SDS011;6016;41.928;25.556;2023-08-08T08:22:16;5.00;;;1.88;;
11911;SDS011;6016;41.928;25.556;2023-08-08T08:24:43;3.72;;;2.00;;
11911;SDS011;6016;41.928;25.556;2023-08-08T08:27:11;3.70;;;2.78;;
11911;SDS011;6016;41.928;25.556;2023-08-08T08:29:38;3.50;;;1.90;;
11911;SDS011;6016;41.928;25.556;2023-08-08T08:32:05;2.33;;;1.80;;
11911;SDS011;6016;41.928;25.556;2023-08-08T08:34:33;4.40;;;2.13;;
11911;SDS011;6016;41.928;25.556;2023-08-08T08:37:01;4.63;;;2.22;;
11911;SDS011;6016;41.928;25.556;2023-08-08T08:39:28;3.63;;;1.95;;
11911;SDS011;6016;41.928;25.556;2023-08-08T08:41:57;1.65;;;1.40;;
11911;SDS011;6016;41.928;25.556;2023-08-08T08:44:26;11.25;;;7.10;;
11911;SDS011;6016;41.928;25.556;2023-08-08T08:46:56;43.05;;;19.00;;
11911;SDS011;6016;41.928;25.556;2023-08-08T08:49:25;13.35;;;5.70;;
11911;SDS011;6016;41.928;25.556;2023-08-08T08:51:57;27.77;;;9.02;;
11911;SDS011;6016;41.928;25.556;2023-08-08T08:54:26;42.97;;;15.55;;
11911;SDS011;6016;41.928;25.556;2023-08-08T08:56:53;31.92;;;14.77;;
11911;SDS011;6016;41.928;25.556;2023-08-08T08:59:22;23.35;;;10.63;;
11911;SDS011;6016;41.928;25.556;2023-08-08T09:01:48;3.88;;;2.70;;
11911;SDS011;6016;41.928;25.556;2023-08-08T09:04:16;5.35;;;2.92;;
11911;SDS011;6016;41.928;25.556;2023-08-08T09:06:46;7.82;;;3.47;;
11911;SDS011;6016;41.928;25.556;2023-08-08T09:09:15;3.20;;;2.00;;
11911;SDS011;6016;41.928;25.556;2023-08-08T09:11:42;4.50;;;2.45;;
11911;SDS011;6016;41.928;25.556;2023-08-08T09:14:17;3.92;;;2.10;;
11911;SDS011;6016;41.928;25.556;2023-08-08T09:16:45;2.63;;;2.00;;
11911;SDS011;6016;41.928;25.556;2023-08-08T09:19:12;3.83;;;2.00;;
11911;SDS011;6016;41.928;25.556;2023-08-08T09:21:39;2.47;;;1.73;;
11911;SDS011;6016;41.928;25.556;2023-08-08T09:24:06;2.08;;;1.88;;
11911;SDS011;6016;41.928;25.556;2023-08-08T09:26:35;2.13;;;1.77;;
11911;SDS011;6016;41.928;25.556;2023-08-08T09:29:02;5.28;;;1.70;;
11911;SDS011;6016;41.928;25.556;2023-08-08T09:31:29;2.25;;;1.80;;
11911;SDS011;6016;41.928;25.556;2023-08-08T09:33:56;2.05;;;1.83;;
11911;SDS011;6016;41.928;25.556;2023-08-08T09:36:24;2.28;;;1.88;;
11911;SDS011;6016;41.928;25.556;2023-08-08T09:38:52;4.25;;;2.90;;
11911;SDS011;6016;41.928;25.556;2023-08-08T09:41:19;3.95;;;2.22;;
11911;SDS011;6016;41.928;25.556;2023-08-08T09:43:48;5.25;;;1.70;;
11911;SDS011;6016;41.928;25.556;2023-08-08T09:46:18;2.10;;;1.85;;
11911;SDS011;6016;41.928;25.556;2023-08-08T09:48:45;4.50;;;1.85;;
11911;SDS011;6016;41.928;25.556;2023-08-08T09:51:13;2.88;;;2.03;;
11911;SDS011;6016;41.928;25.556;2023-08-08T09:53:40;1.55;;;1.40;;
11911;SDS011;6016;41.928;25.556;2023-08-08T09:56:09;1.85;;;1.50;;
11911;SDS011;6016;41.928;25.556;2023-08-08T09:58:36;2.75;;;1.45;;
11911;SDS011;6016;41.928;25.556;2023-08-08T10:01:04;2.85;;;1.40;;
11911;SDS011;6016;41.928;25.556;2023-08-08T10:03:32;2.08;;;1.38;;
11911;SDS011;6016;41.928;25.556;2023-08-08T10:06:01;1.83;;;1.52;;
11911;SDS011;6016;41.928;25.556;2023-08-08T10:08:28;1.40;;;1.30;;
11911;SDS011;6016;41.928;25.556;2023-08-08T10:10:56;1.85;;;1.52;;
11911;SDS011;6016;41.928;25.556;2023-08-08T10:13:23;1.90;;;1.50;;
11911;SDS011;6016;41.928;25.556;2023-08-08T10:15:52;1.60;;;1.50;;
11911;SDS011;6016;41.928;25.556;2023-08-08T10:18:22;1.90;;;1.63;;
11911;SDS011;6016;41.928;25.556;2023-08-08T10:20:49;1.85;;;1.65;;
11911;SDS011;6016;41.928;25.556;2023-08-08T10:23:18;1.60;;;1.50;;
11911;SDS011;6016;41.928;25.556;2023-08-08T10:25:47;1.92;;;1.60;;
11911;SDS011;6016;41.928;25.556;2023-08-08T10:28:17;2.92;;;1.50;;
11911;SDS011;6016;41.928;25.556;2023-08-08T10:30:46;2.08;;;1.80;;
11911;SDS011;6016;41.928;25.556;2023-08-08T10:33:17;1.58;;;1.48;;
11911;SDS011;6016;41.928;25.556;2023-08-08T10:35:56;2.28;;;1.80;;
11911;SDS011;6016;41.928;25.556;2023-08-08T10:38:24;2.35;;;1.73;;
11911;SDS011;6016;41.928;25.556;2023-08-08T10:40:55;2.05;;;1.67;;
11911;SDS011;6016;41.928;25.556;2023-08-08T10:43:26;1.73;;;1.60;;
11911;SDS011;6016;41.928;25.556;2023-08-08T10:45:56;2.00;;;1.80;;
11911;SDS011;6016;41.928;25.556;2023-08-08T10:48:25;3.83;;;1.98;;
11911;SDS011;6016;41.928;25.556;2023-08-08T10:50:55;4.07;;;1.90;;
11911;SDS011;6016;41.928;25.556;2023-08-08T10:53:25;1.98;;;1.77;;
11911;SDS011;6016;41.928;25.556;2023-08-08T10:55:59;3.33;;;1.90;;
11911;SDS011;6016;41.928;25.556;2023-08-08T10:58:36;2.28;;;2.10;;
11911;SDS011;6016;41.928;25.556;2023-08-08T11:01:04;2.47;;;1.85;;
11911;SDS011;6016;41.928;25.556;2023-08-08T11:03:34;3.38;;;1.80;;
11911;SDS011;6016;41.928;25.556;2023-08-08T11:06:03;2.78;;;1.90;;
11911;SDS011;6016;41.928;25.556;2023-08-08T11:08:30;3.80;;;1.90;;
11911;SDS011;6016;41.928;25.556;2023-08-08T11:10:58;2.03;;;1.70;;
11911;SDS011;6016;41.928;25.556;2023-08-08T11:13:25;2.20;;;1.80;;
11911;SDS011;6016;41.928;25.556;2023-08-08T11:15:52;2.10;;;1.70;;
11911;SDS011;6016;41.928;25.556;2023-08-08T11:18:19;1.98;;;1.77;;
11911;SDS011;6016;41.928;25.556;2023-08-08T11:20:47;2.35;;;1.85;;
11911;SDS011;6016;41.928;25.556;2023-08-08T11:23:16;2.20;;;1.88;;
11911;SDS011;6016;41.928;25.556;2023-08-08T11:25:44;2.95;;;2.03;;
11911;SDS011;6016;41.928;25.556;2023-08-08T11:28:11;2.10;;;1.90;;
11911;SDS011;6016;41.928;25.556;2023-08-08T11:30:40;3.60;;;2.20;;
11911;SDS011;6016;41.928;25.556;2023-08-08T11:33:08;2.17;;;1.80;;
11911;SDS011;6016;41.928;25.556;2023-08-08T11:35:36;2.35;;;2.15;;
11911;SDS011;6016;41.928;25.556;2023-08-08T11:38:04;2.90;;;1.98;;
11911;SDS011;6016;41.928;25.556;2023-08-08T11:40:33;2.63;;;2.17;;
11911;SDS011;6016;41.928;25.556;2023-08-08T11:43:00;2.20;;;1.95;;
11911;SDS011;6016;41.928;25.556;2023-08-08T11:45:27;1.85;;;1.70;;
11911;SDS011;6016;41.928;25.556;2023-08-08T11:47:55;3.15;;;2.53;;
11911;SDS011;6016;41.928;25.556;2023-08-08T11:50:22;3.10;;;2.58;;
11911;SDS011;6016;41.928;25.556;2023-08-08T11:52:51;6.32;;;4.18;;
11911;SDS011;6016;41.928;25.556;2023-08-08T11:55:19;2.88;;;1.90;;
11911;SDS011;6016;41.928;25.556;2023-08-08T11:57:49;4.25;;;2.92;;
11911;SDS011;6016;41.928;25.556;2023-08-08T12:00:16;3.78;;;2.85;;
11911;SDS011;6016;41.928;25.556;2023-08-08T12:02:43;2.25;;;1.95;;
11911;SDS011;6016;41.928;25.556;2023-08-08T12:05:10;2.53;;;2.08;;
11911;SDS011;6016;41.928;25.556;2023-08-08T12:07:39;2.60;;;1.90;;
11911;SDS011;6016;41.928;25.556;2023-08-08T12:10:13;2.00;;;1.90;;
11911;SDS011;6016;41.928;25.556;2023-08-08T12:12:41;4.10;;;2.20;;
11911;SDS011;6016;41.928;25.556;2023-08-08T12:15:10;2.47;;;2.25;;
11911;SDS011;6016;41.928;25.556;2023-08-08T12:17:37;2.38;;;2.10;;
11911;SDS011;6016;41.928;25.556;2023-08-08T12:20:05;3.05;;;2.13;;
11911;SDS011;6016;41.928;25.556;2023-08-08T12:22:33;2.20;;;1.92;;
11911;SDS011;6016;41.928;25.556;2023-08-08T12:25:00;4.05;;;2.20;;
11911;SDS011;6016;41.928;25.556;2023-08-08T12:27:28;3.80;;;1.85;;
11911;SDS011;6016;41.928;25.556;2023-08-08T12:29:55;2.83;;;2.15;;
11911;SDS011;6016;41.928;25.556;2023-08-08T12:32:24;2.20;;;2.00;;
11911;SDS011;6016;41.928;25.556;2023-08-08T12:34:53;4.63;;;1.80;;
11911;SDS011;6016;41.928;25.556;2023-08-08T12:37:20;1.90;;;1.70;;
11911;SDS011;6016;41.928;25.556;2023-08-08T12:39:48;1.80;;;1.50;;
11911;SDS011;6016;41.928;25.556;2023-08-08T12:42:15;1.75;;;1.60;;
11911;SDS011;6016;41.928;25.556;2023-08-08T12:44:42;1.95;;;1.70;;
11911;SDS011;6016;41.928;25.556;2023-08-08T12:47:08;2.65;;;2.00;;
11911;SDS011;6016;41.928;25.556;2023-08-08T12:49:37;2.28;;;2.00;;
11911;SDS011;6016;41.928;25.556;2023-08-08T12:52:04;3.22;;;1.80;;
11911;SDS011;6016;41.928;25.556;2023-08-08T12:54:31;4.18;;;1.80;;
11911;SDS011;6016;41.928;25.556;2023-08-08T12:56:57;4.18;;;2.88;;
11911;SDS011;6016;41.928;25.556;2023-08-08T12:59:24;6.15;;;4.78;;
11911;SDS011;6016;41.928;25.556;2023-08-08T13:01:51;4.05;;;2.72;;
11911;SDS011;6016;41.928;25.556;2023-08-08T13:04:18;1.67;;;1.48;;
11911;SDS011;6016;41.928;25.556;2023-08-08T13:06:47;4.97;;;3.97;;
11911;SDS011;6016;41.928;25.556;2023-08-08T13:09:14;3.97;;;2.88;;
11911;SDS011;6016;41.928;25.556;2023-08-08T13:11:41;3.05;;;1.80;;
11911;SDS011;6016;41.928;25.556;2023-08-08T13:14:08;2.60;;;1.77;;
11911;SDS011;6016;41.928;25.556;2023-08-08T13:16:35;2.55;;;2.20;;
11911;SDS011;6016;41.928;25.556;2023-08-08T13:19:02;6.50;;;2.10;;
11911;SDS011;6016;41.928;25.556;2023-08-08T13:21:30;3.38;;;2.88;;
11911;SDS011;6016;41.928;25.556;2023-08-08T13:23:58;5.97;;;3.95;;
11911;SDS011;6016;41.928;25.556;2023-08-08T13:26:25;2.33;;;2.13;;
11911;SDS011;6016;41.928;25.556;2023-08-08T13:28:52;4.47;;;2.30;;
11911;SDS011;6016;41.928;25.556;2023-08-08T13:31:19;3.83;;;3.08;;
11911;SDS011;6016;41.928;25.556;2023-08-08T13:33:45;3.67;;;2.00;;
11911;SDS011;6016;41.928;25.556;2023-08-08T13:36:12;2.22;;;2.00;;
11911;SDS011;6016;41.928;25.556;2023-08-08T13:38:39;3.80;;;2.28;;
11911;SDS011;6016;41.928;25.556;2023-08-08T13:41:07;7.07;;;5.18;;
11911;SDS011;6016;41.928;25.556;2023-08-08T13:43:34;2.22;;;1.90;;
11911;SDS011;6016;41.928;25.556;2023-08-08T13:46:01;2.47;;;1.80;;
11911;SDS011;6016;41.928;25.556;2023-08-08T13:48:29;9.18;;;7.00;;
11911;SDS011;6016;41.928;25.556;2023-08-08T13:50:55;3.35;;;2.75;;
11911;SDS011;6016;41.928;25.556;2023-08-08T13:53:23;4.38;;;3.30;;
11911;SDS011;6016;41.928;25.556;2023-08-08T13:55:49;3.35;;;2.20;;
11911;SDS011;6016;41.928;25.556;2023-08-08T13:58:17;3.45;;;2.70;;
11911;SDS011;6016;41.928;25.556;2023-08-08T14:00:47;3.65;;;2.33;;
11911;SDS011;6016;41.928;25.556;2023-08-08T14:03:14;2.58;;;1.85;;
11911;SDS011;6016;41.928;25.556;2023-08-08T14:05:40;2.22;;;1.83;;
11911;SDS011;6016;41.928;25.556;2023-08-08T14:08:08;2.25;;;2.05;;
11911;SDS011;6016;41.928;25.556;2023-08-08T14:10:35;2.45;;;2.00;;
11911;SDS011;6016;41.928;25.556;2023-08-08T14:13:02;4.25;;;2.10;;
11911;SDS011;6016;41.928;25.556;2023-08-08T14:15:30;2.40;;;2.08;;
11911;SDS011;6016;41.928;25.556;2023-08-08T14:17:58;2.60;;;1.85;;
11911;SDS011;6016;41.928;25.556;2023-08-08T14:20:25;2.85;;;1.98;;
11911;SDS011;6016;41.928;25.556;2023-08-08T14:22:52;4.05;;;2.00;;
11911;SDS011;6016;41.928;25.556;2023-08-08T14:25:19;3.55;;;1.70;;
11911;SDS011;6016;41.928;25.556;2023-08-08T14:27:46;2.50;;;1.60;;
11911;SDS011;6016;41.928;25.556;2023-08-08T14:30:13;3.35;;;1.83;;
11911;SDS011;6016;41.928;25.556;2023-08-08T14:32:41;2.42;;;2.03;;
11911;SDS011;6016;41.928;25.556;2023-08-08T14:35:08;1.75;;;1.65;;
11911;SDS011;6016;41.928;25.556;2023-08-08T14:37:35;2.10;;;1.80;;
11911;SDS011;6016;41.928;25.556;2023-08-08T14:40:02;2.30;;;1.88;;
11911;SDS011;6016;41.928;25.556;2023-08-08T14:42:31;3.42;;;1.70;;
11911;SDS011;6016;41.928;25.556;2023-08-08T14:44:57;1.90;;;1.70;;
11911;SDS011;6016;41.928;25.556;2023-08-08T14:47:24;2.40;;;2.13;;
11911;SDS011;6016;41.928;25.556;2023-08-08T14:49:53;2.30;;;1.90;;